sensor_id;sensor_type;location;lat;lon;timestamp;pressure;altitude;pressure_sealevel;temperature;humidity
21011;BME280;10663;42.714;23.274;2023-04-23T00:00:53;94734.94;;;12.57;64.29
21011;BME280;10663;42.714;23.274;2023-04-23T00:02:28;94734.72;;;12.54;64.46
21011;BME280;10663;42.714;23.274;2023-04-23T00:04:02;94733.28;;;12.27;64.46
21011;BME280;10663;42.714;23.274;2023-04-23T00:05:44;94736.94;;;12.31;64.10
21011;BME280;10663;42.714;23.274;2023-04-23T00:07:15;94738.84;;;12.26;63.68
21011;BME280;10663;42.714;23.274;2023-04-23T00:08:50;94733.22;;;12.38;63.44
21011;BME280;10663;42.714;23.274;2023-04-23T00:10:22;94736.47;;;12.24;63.15
21011;BME280;10663;42.714;23.274;2023-04-23T00:11:53;94736.66;;;12.38;62.64
21011;BME280;10663;42.714;23.274;2023-04-23T00:13:25;94737.78;;;12.27;63.22
21011;BME280;10663;42.714;23.274;2023-04-23T00:14:56;94743.00;;;12.42;62.62
21011;BME280;10663;42.714;23.274;2023-04-23T00:16:27;94738.03;;;12.30;62.96
21011;BME280;10663;42.714;23.274;2023-04-23T00:17:58;94742.94;;;12.52;62.69
21011;BME280;10663;42.714;23.274;2023-04-23T00:19:29;94738.16;;;12.54;63.17
21011;BME280;10663;42.714;23.274;2023-04-23T00:21:00;94736.31;;;12.50;63.24
21011;BME280;10663;42.714;23.274;2023-04-23T00:22:31;94736.03;;;12.51;62.42
21011;BME280;10663;42.714;23.274;2023-04-23T00:24:02;94734.44;;;12.50;61.88
21011;BME280;10663;42.714;23.274;2023-04-23T00:25:33;94739.03;;;12.40;62.05
21011;BME280;10663;42.714;23.274;2023-04-23T00:27:04;94735.09;;;12.37;62.42
21011;BME280;10663;42.714;23.274;2023-04-23T00:28:35;94740.94;;;12.34;62.72
21011;BME280;10663;42.714;23.274;2023-04-23T00:30:06;94733.72;;;12.40;62.77
21011;BME280;10663;42.714;23.274;2023-04-23T00:31:38;94737.78;;;12.27;62.42
21011;BME280;10663;42.714;23.274;2023-04-23T00:33:09;94732.13;;;11.89;63.23
21011;BME280;10663;42.714;23.274;2023-04-23T00:34:41;94730.03;;;11.71;64.40
21011;BME280;10663;42.714;23.274;2023-04-23T00:36:12;94742.28;;;11.52;64.26
21011;BME280;10663;42.714;23.274;2023-04-23T00:37:43;94736.78;;;11.13;65.45
21011;BME280;10663;42.714;23.274;2023-04-23T00:39:14;94737.81;;;11.12;65.57
21011;BME280;10663;42.714;23.274;2023-04-23T00:40:45;94730.94;;;10.96;66.39
21011;BME280;10663;42.714;23.274;2023-04-23T00:42:15;94739.19;;;10.89;66.74
21011;BME280;10663;42.714;23.274;2023-04-23T00:43:47;94737.81;;;11.12;66.31
21011;BME280;10663;42.714;23.274;2023-04-23T00:45:19;94732.25;;;11.29;66.34
21011;BME280;10663;42.714;23.274;2023-04-23T00:46:50;94736.44;;;11.50;65.85
21011;BME280;10663;42.714;23.274;2023-04-23T00:48:23;94737.72;;;11.73;64.62
21011;BME280;10663;42.714;23.274;2023-04-23T00:49:55;94743.56;;;11.80;63.94
21011;BME280;10663;42.714;23.274;2023-04-23T00:51:27;94739.59;;;11.82;63.92
21011;BME280;10663;42.714;23.274;2023-04-23T00:52:58;94744.91;;;11.62;64.24
21011;BME280;10663;42.714;23.274;2023-04-23T00:54:29;94744.41;;;11.50;65.05
21011;BME280;10663;42.714;23.274;2023-04-23T00:56:01;94740.16;;;11.54;65.58
21011;BME280;10663;42.714;23.274;2023-04-23T00:57:36;94743.28;;;11.66;64.88
21011;BME280;10663;42.714;23.274;2023-04-23T00:59:08;94735.13;;;11.47;64.72
21011;BME280;10663;42.714;23.274;2023-04-23T01:00:43;94741.47;;;11.51;65.73
21011;BME280;10663;42.714;23.274;2023-04-23T01:02:16;94739.84;;;11.71;65.36
21011;BME280;10663;42.714;23.274;2023-04-23T01:03:48;94735.97;;;11.38;65.54
21011;BME280;10663;42.714;23.274;2023-04-23T01:05:21;94740.22;;;11.18;66.62
21011;BME280;10663;42.714;23.274;2023-04-23T01:06:53;94745.28;;;11.10;67.06
21011;BME280;10663;42.714;23.274;2023-04-23T01:08:24;94745.78;;;11.12;67.17
21011;BME280;10663;42.714;23.274;2023-04-23T01:09:55;94737.25;;;11.40;66.77
21011;BME280;10663;42.714;23.274;2023-04-23T01:11:27;94741.19;;;11.58;66.00
21011;BME280;10663;42.714;23.274;2023-04-23T01:12:58;94736.94;;;11.77;65.26
21011;BME280;10663;42.714;23.274;2023-04-23T01:14:30;94737.44;;;11.84;64.91
21011;BME280;10663;42.714;23.274;2023-04-23T01:16:01;94733.47;;;11.77;65.00
21011;BME280;10663;42.714;23.274;2023-04-23T01:17:32;94741.19;;;11.83;64.82
21011;BME280;10663;42.714;23.274;2023-04-23T01:19:08;94735.31;;;11.86;64.68
21011;BME280;10663;42.714;23.274;2023-04-23T01:20:39;94737.72;;;11.78;65.49
21011;BME280;10663;42.714;23.274;2023-04-23T01:22:12;94735.81;;;11.93;64.95
21011;BME280;10663;42.714;23.274;2023-04-23T01:23:43;94739.56;;;11.87;64.26
21011;BME280;10663;42.714;23.274;2023-04-23T01:25:14;94733.38;;;12.02;64.17
21011;BME280;10663;42.714;23.274;2023-04-23T01:26:45;94741.38;;;11.97;63.69
21011;BME280;10663;42.714;23.274;2023-04-23T01:28:16;94742.72;;;11.89;64.50
21011;BME280;10663;42.714;23.274;2023-04-23T01:29:48;94736.59;;;11.94;63.78
21011;BME280;10663;42.714;23.274;2023-04-23T01:31:19;94739.59;;;11.82;63.80
21011;BME280;10663;42.714;23.274;2023-04-23T01:32:50;94735.88;;;11.73;63.44
21011;BME280;10663;42.714;23.274;2023-04-23T01:34:22;94743.28;;;11.71;63.50
21011;BME280;10663;42.714;23.274;2023-04-23T01:35:54;94740.38;;;11.78;63.52
21011;BME280;10663;42.714;23.274;2023-04-23T01:37:25;94735.59;;;11.75;63.58
21011;BME280;10663;42.714;23.274;2023-04-23T01:38:57;94738.53;;;11.58;64.41
21011;BME280;10663;42.714;23.274;2023-04-23T01:40:27;94741.16;;;11.68;64.14
21011;BME280;10663;42.714;23.274;2023-04-23T01:41:58;94737.75;;;11.62;64.21
21011;BME280;10663;42.714;23.274;2023-04-23T01:43:31;94738.31;;;11.54;63.74
21011;BME280;10663;42.714;23.274;2023-04-23T01:45:02;94739.91;;;11.55;63.82
21011;BME280;10663;42.714;23.274;2023-04-23T01:46:33;94738.84;;;11.41;64.67
21011;BME280;10663;42.714;23.274;2023-04-23T01:48:04;94737.53;;;11.44;64.84
21011;BME280;10663;42.714;23.274;2023-04-23T01:49:35;94739.09;;;11.55;64.69
21011;BME280;10663;42.714;23.274;2023-04-23T01:51:06;94739.34;;;11.58;64.38
21011;BME280;10663;42.714;23.274;2023-04-23T01:52:37;94741.19;;;11.63;64.24
21011;BME280;10663;42.714;23.274;2023-04-23T01:54:08;94747.00;;;11.70;63.98
21011;BME280;10663;42.714;23.274;2023-04-23T01:55:40;94745.69;;;11.78;63.84
21011;BME280;10663;42.714;23.274;2023-04-23T01:57:11;94749.66;;;11.80;63.33
21011;BME280;10663;42.714;23.274;2023-04-23T01:58:42;94745.13;;;11.86;62.74
21011;BME280;10663;42.714;23.274;2023-04-23T02:00:14;94745.94;;;11.66;63.12
21011;BME280;10663;42.714;23.274;2023-04-23T02:01:46;94746.00;;;11.56;63.35
21011;BME280;10663;42.714;23.274;2023-04-23T02:03:17;94744.94;;;11.52;64.51
21011;BME280;10663;42.714;23.274;2023-04-23T02:04:49;94749.47;;;11.36;65.00
21011;BME280;10663;42.714;23.274;2023-04-23T02:06:20;94743.06;;;11.47;64.69
21011;BME280;10663;42.714;23.274;2023-04-23T02:07:51;94744.13;;;11.61;64.17
21011;BME280;10663;42.714;23.274;2023-04-23T02:09:22;94741.25;;;11.43;64.44
21011;BME280;10663;42.714;23.274;2023-04-23T02:10:53;94747.31;;;11.63;64.60
21011;BME280;10663;42.714;23.274;2023-04-23T02:12:24;94745.94;;;11.71;63.95
21011;BME280;10663;42.714;23.274;2023-04-23T02:13:55;94744.16;;;11.31;63.07
21011;BME280;10663;42.714;23.274;2023-04-23T02:15:27;94746.78;;;11.51;62.41
21011;BME280;10663;42.714;23.274;2023-04-23T02:16:58;94743.88;;;11.43;62.40
21011;BME280;10663;42.714;23.274;2023-04-23T02:18:28;94748.19;;;11.29;62.82
21011;BME280;10663;42.714;23.274;2023-04-23T02:20:00;94746.06;;;11.05;64.35
21011;BME280;10663;42.714;23.274;2023-04-23T02:21:31;94759.25;;;10.34;65.67
21011;BME280;10663;42.714;23.274;2023-04-23T02:23:02;94761.56;;;10.21;66.90
21011;BME280;10663;42.714;23.274;2023-04-23T02:24:33;94760.44;;;10.11;67.55
21011;BME280;10663;42.714;23.274;2023-04-23T02:26:04;94757.38;;;10.40;67.07
21011;BME280;10663;42.714;23.274;2023-04-23T02:27:35;94766.19;;;10.71;66.42
21011;BME280;10663;42.714;23.274;2023-04-23T02:29:06;94750.56;;;10.90;65.54
21011;BME280;10663;42.714;23.274;2023-04-23T02:30:37;94754.81;;;11.06;64.28
21011;BME280;10663;42.714;23.274;2023-04-23T02:32:09;94754.53;;;11.02;65.04
21011;BME280;10663;42.714;23.274;2023-04-23T02:33:41;94758.50;;;11.25;64.69
21011;BME280;10663;42.714;23.274;2023-04-23T02:35:12;94753.44;;;11.34;63.92
21011;BME280;10663;42.714;23.274;2023-04-23T02:36:44;94758.25;;;10.86;64.86
21011;BME280;10663;42.714;23.274;2023-04-23T02:38:15;94756.38;;;11.12;65.25
21011;BME280;10663;42.714;23.274;2023-04-23T02:39:46;94758.22;;;11.21;63.95
21011;BME280;10663;42.714;23.274;2023-04-23T02:41:17;94753.19;;;11.25;64.38
21011;BME280;10663;42.714;23.274;2023-04-23T02:42:48;94751.31;;;11.31;64.00
21011;BME280;10663;42.714;23.274;2023-04-23T02:44:20;94749.47;;;11.31;63.37
21011;BME280;10663;42.714;23.274;2023-04-23T02:45:50;94755.56;;;11.32;62.88
21011;BME280;10663;42.714;23.274;2023-04-23T02:47:21;94757.16;;;11.38;62.27
21011;BME280;10663;42.714;23.274;2023-04-23T02:48:52;94746.53;;;11.48;61.39
21011;BME280;10663;42.714;23.274;2023-04-23T02:50:23;94760.91;;;11.16;62.50
21011;BME280;10663;42.714;23.274;2023-04-23T02:51:54;94757.72;;;11.04;63.92
21011;BME280;10663;42.714;23.274;2023-04-23T02:53:25;94760.88;;;11.21;62.51
21011;BME280;10663;42.714;23.274;2023-04-23T02:54:56;94756.38;;;11.27;63.41
21011;BME280;10663;42.714;23.274;2023-04-23T02:56:27;94753.19;;;11.25;62.55
21011;BME280;10663;42.714;23.274;2023-04-23T02:57:58;94752.63;;;11.48;62.04
21011;BME280;10663;42.714;23.274;2023-04-23T02:59:29;94754.25;;;11.44;62.15
21011;BME280;10663;42.714;23.274;2023-04-23T03:01:00;94756.59;;;11.56;61.58
21011;BME280;10663;42.714;23.274;2023-04-23T03:02:32;94755.81;;;11.55;62.04
21011;BME280;10663;42.714;23.274;2023-04-23T03:04:03;94757.94;;;11.38;61.32
21011;BME280;10663;42.714;23.274;2023-04-23T03:05:34;94764.59;;;11.25;61.28
21011;BME280;10663;42.714;23.274;2023-04-23T03:07:05;94766.47;;;11.05;61.60
21011;BME280;10663;42.714;23.274;2023-04-23T03:08:36;94768.31;;;11.09;62.40
21011;BME280;10663;42.714;23.274;2023-04-23T03:10:08;94763.28;;;11.13;62.38
21011;BME280;10663;42.714;23.274;2023-04-23T03:11:39;94765.69;;;11.19;61.81
21011;BME280;10663;42.714;23.274;2023-04-23T03:13:11;94770.41;;;11.43;61.74
21011;BME280;10663;42.714;23.274;2023-04-23T03:14:42;94760.59;;;11.43;61.15
21011;BME280;10663;42.714;23.274;2023-04-23T03:16:13;94763.75;;;11.50;61.07
21011;BME280;10663;42.714;23.274;2023-04-23T03:17:44;94767.78;;;11.33;61.16
21011;BME280;10663;42.714;23.274;2023-04-23T03:19:15;94773.59;;;11.24;62.05
21011;BME280;10663;42.714;23.274;2023-04-23T03:20:46;94768.03;;;11.21;62.49
21011;BME280;10663;42.714;23.274;2023-04-23T03:22:17;94768.31;;;11.35;62.14
21011;BME280;10663;42.714;23.274;2023-04-23T03:23:48;94765.38;;;11.36;61.34
21011;BME280;10663;42.714;23.274;2023-04-23T03:25:19;94768.03;;;11.36;61.28
21011;BME280;10663;42.714;23.274;2023-04-23T03:26:52;94774.94;;;11.27;61.86
21011;BME280;10663;42.714;23.274;2023-04-23T03:28:23;94757.16;;;11.43;61.10
21011;BME280;10663;42.714;23.274;2023-04-23T03:29:54;94769.06;;;11.50;60.63
21011;BME280;10663;42.714;23.274;2023-04-23T03:31:25;94768.53;;;11.53;60.93
21011;BME280;10663;42.714;23.274;2023-04-23T03:32:57;94771.97;;;11.49;61.17
21011;BME280;10663;42.714;23.274;2023-04-23T03:34:28;94764.81;;;11.54;61.31
21011;BME280;10663;42.714;23.274;2023-04-23T03:35:59;94769.06;;;11.50;60.53
21011;BME280;10663;42.714;23.274;2023-04-23T03:37:34;94769.09;;;11.45;60.66
21011;BME280;10663;42.714;23.274;2023-04-23T03:39:05;94770.38;;;11.48;60.52
21011;BME280;10663;42.714;23.274;2023-04-23T03:40:49;94775.91;;;11.67;60.50
21011;BME280;10663;42.714;23.274;2023-04-23T03:42:20;94770.66;;;11.51;60.50
21011;BME280;10663;42.714;23.274;2023-04-23T03:43:52;94777.81;;;11.51;61.50
21011;BME280;10663;42.714;23.274;2023-04-23T03:45:43;94773.53;;;11.75;59.62
21011;BME280;10663;42.714;23.274;2023-04-23T03:47:14;94775.72;;;11.43;60.06
21011;BME280;10663;42.714;23.274;2023-04-23T03:48:46;94777.50;;;11.73;59.88
21011;BME280;10663;42.714;23.274;2023-04-23T03:50:25;94769.56;;;11.78;59.25
21011;BME280;10663;42.714;23.274;2023-04-23T03:52:09;94778.38;;;11.33;59.73
21011;BME280;10663;42.714;23.274;2023-04-23T03:53:43;94785.00;;;10.95;61.19
21011;BME280;10663;42.714;23.274;2023-04-23T03:55:32;94778.66;;;11.36;60.95
21011;BME280;10663;42.714;23.274;2023-04-23T03:57:03;94775.16;;;11.51;60.40
21011;BME280;10663;42.714;23.274;2023-04-23T03:58:39;94781.25;;;11.61;59.79
21011;BME280;10663;42.714;23.274;2023-04-23T04:00:11;94777.53;;;11.47;59.26
21011;BME280;10663;42.714;23.274;2023-04-23T04:01:46;94777.31;;;11.44;59.64
21011;BME280;10663;42.714;23.274;2023-04-23T04:03:22;94784.19;;;11.30;59.72
21011;BME280;10663;42.714;23.274;2023-04-23T04:04:56;94794.03;;;11.19;59.88
21011;BME280;10663;42.714;23.274;2023-04-23T04:06:28;94788.44;;;11.05;60.87
21011;BME280;10663;42.714;23.274;2023-04-23T04:07:59;94789.50;;;11.40;60.09
21011;BME280;10663;42.714;23.274;2023-04-23T04:09:31;94790.06;;;11.16;60.36
21011;BME280;10663;42.714;23.274;2023-04-23T04:11:06;94782.91;;;11.17;60.75
21011;BME280;10663;42.714;23.274;2023-04-23T04:12:37;94792.69;;;11.47;60.16
21011;BME280;10663;42.714;23.274;2023-04-23T04:14:14;94787.63;;;11.50;59.46
21011;BME280;10663;42.714;23.274;2023-04-23T04:15:45;94792.16;;;11.45;59.52
21011;BME280;10663;42.714;23.274;2023-04-23T04:17:16;94788.69;;;11.39;60.17
21011;BME280;10663;42.714;23.274;2023-04-23T04:18:47;94780.97;;;11.58;59.91
21011;BME280;10663;42.714;23.274;2023-04-23T04:20:18;94788.69;;;11.39;59.62
21011;BME280;10663;42.714;23.274;2023-04-23T04:21:49;94795.59;;;11.45;59.94
21011;BME280;10663;42.714;23.274;2023-04-23T04:23:23;94792.94;;;11.50;60.00
21011;BME280;10663;42.714;23.274;2023-04-23T04:24:54;94786.84;;;11.55;59.89
21011;BME280;10663;42.714;23.274;2023-04-23T04:26:27;94795.59;;;11.45;59.96
21011;BME280;10663;42.714;23.274;2023-04-23T04:27:59;94803.28;;;11.32;60.16
21011;BME280;10663;42.714;23.274;2023-04-23T04:29:30;94805.94;;;11.47;60.31
21011;BME280;10663;42.714;23.274;2023-04-23T04:31:02;94803.03;;;11.33;60.75
21011;BME280;10663;42.714;23.274;2023-04-23T04:32:33;94806.47;;;11.23;61.14
21011;BME280;10663;42.714;23.274;2023-04-23T04:34:05;94804.38;;;11.25;60.98
21011;BME280;10663;42.714;23.274;2023-04-23T04:35:38;94805.41;;;10.89;62.20
21011;BME280;10663;42.714;23.274;2023-04-23T04:37:09;94804.34;;;11.05;62.43
21011;BME280;10663;42.714;23.274;2023-04-23T04:38:41;94812.03;;;11.52;61.21
21011;BME280;10663;42.714;23.274;2023-04-23T04:40:13;94808.84;;;11.40;60.45
21011;BME280;10663;42.714;23.274;2023-04-23T04:41:45;94803.81;;;11.44;61.31
21011;BME280;10663;42.714;23.274;2023-04-23T04:43:16;94816.50;;;11.67;61.29
21011;BME280;10663;42.714;23.274;2023-04-23T04:44:48;94817.84;;;11.59;61.40
21011;BME280;10663;42.714;23.274;2023-04-23T04:46:21;94817.59;;;11.41;61.54
21011;BME280;10663;42.714;23.274;2023-04-23T04:47:52;94822.91;;;11.00;63.17
21011;BME280;10663;42.714;23.274;2023-04-23T04:49:23;94821.00;;;10.70;65.20
21011;BME280;10663;42.714;23.274;2023-04-23T04:50:54;94821.53;;;10.62;65.82
21011;BME280;10663;42.714;23.274;2023-04-23T04:52:26;94826.25;;;10.50;66.67
21011;BME280;10663;42.714;23.274;2023-04-23T04:53:57;94826.56;;;10.64;66.30
21011;BME280;10663;42.714;23.274;2023-04-23T04:55:29;94821.16;;;10.38;67.49
21011;BME280;10663;42.714;23.274;2023-04-23T04:57:01;94820.75;;;10.77;66.26
21011;BME280;10663;42.714;23.274;2023-04-23T04:58:32;94825.22;;;10.61;66.94
21011;BME280;10663;42.714;23.274;2023-04-23T05:00:19;94822.63;;;11.12;66.13
21011;BME280;10663;42.714;23.274;2023-04-23T05:01:52;94824.47;;;10.81;65.83
21011;BME280;10663;42.714;23.274;2023-04-23T05:03:23;94819.69;;;10.93;65.61
21011;BME280;10663;42.714;23.274;2023-04-23T05:04:54;94831.91;;;10.89;65.39
21011;BME280;10663;42.714;23.274;2023-04-23T05:06:25;94815.75;;;11.46;64.29
21011;BME280;10663;42.714;23.274;2023-04-23T05:07:58;94819.44;;;11.60;63.77
21011;BME280;10663;42.714;23.274;2023-04-23T05:09:31;94823.69;;;11.51;63.45
21011;BME280;10663;42.714;23.274;2023-04-23T05:11:04;94830.84;;;11.51;63.46
21011;BME280;10663;42.714;23.274;2023-04-23T05:12:35;94820.22;;;11.81;62.51
21011;BME280;10663;42.714;23.274;2023-04-23T05:14:06;94820.38;;;12.20;61.33
21011;BME280;10663;42.714;23.274;2023-04-23T05:15:37;94820.75;;;11.78;61.73
21011;BME280;10663;42.714;23.274;2023-04-23T05:17:08;94817.00;;;11.94;61.52
21011;BME280;10663;42.714;23.274;2023-04-23T05:18:39;94810.38;;;11.97;61.05
21011;BME280;10663;42.714;23.274;2023-04-23T05:20:10;94817.75;;;12.15;60.95
21011;BME280;10663;42.714;23.274;2023-04-23T05:21:41;94823.91;;;11.95;61.30
21011;BME280;10663;42.714;23.274;2023-04-23T05:23:12;94821.75;;;12.08;61.69
21011;BME280;10663;42.714;23.274;2023-04-23T05:24:43;94819.44;;;11.81;62.04
21011;BME280;10663;42.714;23.274;2023-04-23T05:26:15;94819.94;;;12.57;60.22
21011;BME280;10663;42.714;23.274;2023-04-23T05:27:46;94821.06;;;12.46;60.06
21011;BME280;10663;42.714;23.274;2023-04-23T05:29:16;94821.56;;;12.48;60.25
21011;BME280;10663;42.714;23.274;2023-04-23T05:30:49;94827.41;;;12.55;60.22
21011;BME280;10663;42.714;23.274;2023-04-23T05:32:20;94830.78;;;12.07;61.29
21011;BME280;10663;42.714;23.274;2023-04-23T05:33:51;94827.47;;;12.40;60.13
21011;BME280;10663;42.714;23.274;2023-04-23T05:35:22;94825.28;;;12.52;60.19
21011;BME280;10663;42.714;23.274;2023-04-23T05:36:53;94829.44;;;12.68;60.09
21011;BME280;10663;42.714;23.274;2023-04-23T05:38:24;94827.84;;;12.67;60.08
21011;BME280;10663;42.714;23.274;2023-04-23T05:39:55;94833.16;;;12.72;60.04
21011;BME280;10663;42.714;23.274;2023-04-23T05:41:27;94836.03;;;12.27;61.33
21011;BME280;10663;42.714;23.274;2023-04-23T05:42:58;94822.19;;;12.35;61.25
21011;BME280;10663;42.714;23.274;2023-04-23T05:44:29;94832.94;;;12.59;60.89
21011;BME280;10663;42.714;23.274;2023-04-23T05:46:00;94837.19;;;12.60;60.58
21011;BME280;10663;42.714;23.274;2023-04-23T05:47:33;94833.56;;;12.46;61.54
21011;BME280;10663;42.714;23.274;2023-04-23T05:49:05;94835.88;;;12.57;61.18
21011;BME280;10663;42.714;23.274;2023-04-23T05:50:36;94827.16;;;12.96;59.79
21011;BME280;10663;42.714;23.274;2023-04-23T05:52:07;94834.00;;;12.58;60.28
21011;BME280;10663;42.714;23.274;2023-04-23T05:53:38;94831.56;;;12.71;59.78
21011;BME280;10663;42.714;23.274;2023-04-23T05:55:09;94832.84;;;13.23;59.26
21011;BME280;10663;42.714;23.274;2023-04-23T05:56:40;94834.50;;;13.19;58.66
21011;BME280;10663;42.714;23.274;2023-04-23T05:58:11;94836.97;;;13.00;59.00
21011;BME280;10663;42.714;23.274;2023-04-23T05:59:41;94843.00;;;12.72;59.41
21011;BME280;10663;42.714;23.274;2023-04-23T06:01:12;94831.84;;;13.14;58.18
21011;BME280;10663;42.714;23.274;2023-04-23T06:02:44;94843.75;;;12.83;59.09
21011;BME280;10663;42.714;23.274;2023-04-23T06:04:15;94836.47;;;12.93;59.73
21011;BME280;10663;42.714;23.274;2023-04-23T06:05:46;94836.59;;;13.56;59.26
21011;BME280;10663;42.714;23.274;2023-04-23T06:07:17;94832.94;;;13.76;58.65
21011;BME280;10663;42.714;23.274;2023-04-23T06:08:48;94834.09;;;13.94;57.65
21011;BME280;10663;42.714;23.274;2023-04-23T06:10:20;94832.94;;;13.47;58.67
21011;BME280;10663;42.714;23.274;2023-04-23T06:11:52;94825.97;;;13.80;57.94
21011;BME280;10663;42.714;23.274;2023-04-23T06:13:23;94824.09;;;14.09;56.16
21011;BME280;10663;42.714;23.274;2023-04-23T06:14:54;94822.44;;;14.37;56.64
21011;BME280;10663;42.714;23.274;2023-04-23T06:16:25;94828.50;;;14.19;56.30
21011;BME280;10663;42.714;23.274;2023-04-23T06:17:56;94826.50;;;13.82;56.74
21011;BME280;10663;42.714;23.274;2023-04-23T06:19:27;94826.63;;;13.38;59.88
21011;BME280;10663;42.714;23.274;2023-04-23T06:20:57;94829.69;;;14.08;57.35
21011;BME280;10663;42.714;23.274;2023-04-23T06:22:31;94832.22;;;13.36;58.23
21011;BME280;10663;42.714;23.274;2023-04-23T06:24:02;94824.41;;;13.79;57.86
21011;BME280;10663;42.714;23.274;2023-04-23T06:25:33;94824.41;;;13.79;57.80
21011;BME280;10663;42.714;23.274;2023-04-23T06:27:04;94832.28;;;13.89;57.67
21011;BME280;10663;42.714;23.274;2023-04-23T06:28:41;94831.13;;;14.00;57.28
21011;BME280;10663;42.714;23.274;2023-04-23T06:30:38;94834.94;;;14.13;56.86
21011;BME280;10663;42.714;23.274;2023-04-23T06:32:09;94827.88;;;14.27;56.50
21011;BME280;10663;42.714;23.274;2023-04-23T06:33:40;94833.13;;;14.32;56.31
21011;BME280;10663;42.714;23.274;2023-04-23T06:35:11;94829.69;;;14.32;56.46
21011;BME280;10663;42.714;23.274;2023-04-23T06:36:42;94825.66;;;14.58;55.32
21011;BME280;10663;42.714;23.274;2023-04-23T06:38:13;94830.38;;;14.18;56.89
21011;BME280;10663;42.714;23.274;2023-04-23T06:39:44;94832.69;;;14.91;55.07
21011;BME280;10663;42.714;23.274;2023-04-23T06:41:15;94833.41;;;14.97;54.64
21011;BME280;10663;42.714;23.274;2023-04-23T06:42:46;94828.13;;;15.29;53.54
21011;BME280;10663;42.714;23.274;2023-04-23T06:44:37;94827.88;;;14.75;54.63
21011;BME280;10663;42.714;23.274;2023-04-23T06:46:08;94826.72;;;14.57;55.43
21011;BME280;10663;42.714;23.274;2023-04-23T06:47:40;94815.53;;;14.79;55.29
21011;BME280;10663;42.714;23.274;2023-04-23T06:49:10;94829.72;;;14.74;55.14
21011;BME280;10663;42.714;23.274;2023-04-23T06:50:42;94826.97;;;14.37;55.95
21011;BME280;10663;42.714;23.274;2023-04-23T06:52:13;94814.44;;;14.61;55.76
21011;BME280;10663;42.714;23.274;2023-04-23T06:53:44;94822.84;;;14.49;55.84
21011;BME280;10663;42.714;23.274;2023-04-23T06:55:15;94819.13;;;15.07;54.58
21011;BME280;10663;42.714;23.274;2023-04-23T06:56:46;94814.22;;;15.14;54.36
21011;BME280;10663;42.714;23.274;2023-04-23T06:58:16;94814.31;;;15.41;54.36
21011;BME280;10663;42.714;23.274;2023-04-23T06:59:47;94816.00;;;15.37;54.22
21011;BME280;10663;42.714;23.274;2023-04-23T07:01:19;94814.94;;;15.84;52.73
21011;BME280;10663;42.714;23.274;2023-04-23T07:02:50;94806.47;;;15.96;52.30
21011;BME280;10663;42.714;23.274;2023-04-23T07:04:24;94807.63;;;15.76;52.88
21011;BME280;10663;42.714;23.274;2023-04-23T07:05:55;94811.34;;;15.61;53.64
21011;BME280;10663;42.714;23.274;2023-04-23T07:07:25;94812.78;;;15.86;52.84
21011;BME280;10663;42.714;23.274;2023-04-23T07:08:56;94819.25;;;16.26;52.26
21011;BME280;10663;42.714;23.274;2023-04-23T07:10:28;94806.69;;;16.13;52.72
21011;BME280;10663;42.714;23.274;2023-04-23T07:11:58;94811.72;;;16.15;52.34
21011;BME280;10663;42.714;23.274;2023-04-23T07:13:31;94817.38;;;15.99;52.93
21011;BME280;10663;42.714;23.274;2023-04-23T07:15:02;94810.94;;;16.28;52.16
21011;BME280;10663;42.714;23.274;2023-04-23T07:16:33;94810.75;;;16.65;51.60
21011;BME280;10663;42.714;23.274;2023-04-23T07:18:04;94813.31;;;16.43;51.93
21011;BME280;10663;42.714;23.274;2023-04-23T07:19:36;94817.38;;;15.67;53.47
21011;BME280;10663;42.714;23.274;2023-04-23T07:21:07;94808.63;;;15.94;53.83
21011;BME280;10663;42.714;23.274;2023-04-23T07:22:38;94810.44;;;16.67;51.62
21011;BME280;10663;42.714;23.274;2023-04-23T07:24:09;94802.13;;;16.68;51.52
21011;BME280;10663;42.714;23.274;2023-04-23T07:25:41;94805.19;;;16.34;51.84
21011;BME280;10663;42.714;23.274;2023-04-23T07:27:11;94801.50;;;16.58;51.82
21011;BME280;10663;42.714;23.274;2023-04-23T07:28:43;94799.09;;;16.97;51.09
21011;BME280;10663;42.714;23.274;2023-04-23T07:30:13;94805.91;;;17.03;50.49
21011;BME280;10663;42.714;23.274;2023-04-23T07:31:44;94804.22;;;17.07;50.75
21011;BME280;10663;42.714;23.274;2023-04-23T07:33:15;94797.38;;;16.52;52.31
21011;BME280;10663;42.714;23.274;2023-04-23T07:34:46;94812.50;;;15.74;53.44
21011;BME280;10663;42.714;23.274;2023-04-23T07:36:17;94814.63;;;15.40;54.95
21011;BME280;10663;42.714;23.274;2023-04-23T07:37:48;94806.13;;;15.56;54.94
21011;BME280;10663;42.714;23.274;2023-04-23T07:39:23;94804.72;;;15.08;56.47
21011;BME280;10663;42.714;23.274;2023-04-23T07:40:54;94800.25;;;16.28;53.64
21011;BME280;10663;42.714;23.274;2023-04-23T07:42:25;94794.19;;;16.50;53.10
21011;BME280;10663;42.714;23.274;2023-04-23T07:43:55;94791.41;;;17.18;51.02
21011;BME280;10663;42.714;23.274;2023-04-23T07:45:26;94795.03;;;17.44;50.38
21011;BME280;10663;42.714;23.274;2023-04-23T07:46:57;94795.72;;;17.28;50.39
21011;BME280;10663;42.714;23.274;2023-04-23T07:48:28;94799.91;;;17.42;49.69
21011;BME280;10663;42.714;23.274;2023-04-23T07:49:59;94800.50;;;17.39;50.25
21011;BME280;10663;42.714;23.274;2023-04-23T07:51:30;94798.69;;;17.71;48.95
21011;BME280;10663;42.714;23.274;2023-04-23T07:53:02;94791.63;;;17.52;49.64
21011;BME280;10663;42.714;23.274;2023-04-23T07:54:33;94787.44;;;17.82;49.18
21011;BME280;10663;42.714;23.274;2023-04-23T07:56:03;94797.09;;;17.92;49.25
21011;BME280;10663;42.714;23.274;2023-04-23T07:57:34;94795.31;;;17.87;49.56
21011;BME280;10663;42.714;23.274;2023-04-23T07:59:05;94796.78;;;17.49;50.32
21011;BME280;10663;42.714;23.274;2023-04-23T08:00:36;94799.72;;;17.83;49.01